Time;durP1;ratioP1;P1;durP2;ratioP2;P2;SDS_P1;SDS_P2;PMS_P1;PMS_P2;Temp;Humidity;BMP_temperature;BMP_pressure;BME280_temperature;BME280_humidity;BME280_pressure;Samples;Min_cycle;Max_cycle;Signal;HPM_P1;HPM_P2
2022/08/08 04:00:19;;;;;;;3.08;1.95;;;13.10;94.80;;;;;;5973284;23;20015;-71
2022/08/08 04:03:00;;;;;;;1.85;1.60;;;13.20;94.60;;;;;;4976381;28;20043;-71
2022/08/08 04:05:28;;;;;;;2.38;1.63;;;13.20;94.50;;;;;;4976727;28;20058;-71
2022/08/08 04:07:54;;;;;;;3.28;1.40;;;13.20;94.40;;;;;;4976826;28;20497;-71
2022/08/08 04:10:20;;;;;;;2.75;1.50;;;13.20;94.70;;;;;;4977211;28;20027;-71
2022/08/08 04:12:46;;;;;;;2.55;1.38;;;13.20;94.30;;;;;;4977812;28;20031;-71
2022/08/08 04:15:11;;;;;;;2.78;1.75;;;13.30;94.10;;;;;;4976834;28;20039;-71
2022/08/08 04:17:37;;;;;;;3.58;1.60;;;13.30;93.60;;;;;;4975638;28;20039;-71
2022/08/08 04:20:04;;;;;;;4.25;1.52;;;13.30;93.80;;;;;;4976556;28;20485;-72
2022/08/08 04:22:29;;;;;;;2.28;1.30;;;13.30;94.20;;;;;;4976414;28;20040;-72
2022/08/08 04:24:55;;;;;;;3.33;1.60;;;13.40;94.10;;;;;;4976804;28;20078;-72
2022/08/08 04:27:22;;;;;;;2.08;1.40;;;13.40;94.00;;;;;;4976749;28;20102;-72
2022/08/08 04:29:47;;;;;;;1.70;1.40;;;13.40;93.60;;;;;;4975428;28;20483;-73
2022/08/08 04:32:13;;;;;;;2.70;1.48;;;13.40;94.20;;;;;;4976777;28;20086;-73
2022/08/08 04:34:40;;;;;;;1.98;1.60;;;13.30;94.00;;;;;;4976559;28;20448;-73
2022/08/08 04:37:06;;;;;;;2.70;1.55;;;13.30;93.80;;;;;;4976828;28;20051;-73
2022/08/08 04:39:31;;;;;;;2.60;1.50;;;13.30;94.20;;;;;;4976650;28;20043;-72
2022/08/08 04:41:57;;;;;;;3.22;1.38;;;13.30;93.80;;;;;;4976654;28;20035;-72
2022/08/08 04:44:23;;;;;;;1.83;1.58;;;13.40;94.20;;;;;;4975340;28;20035;-72
2022/08/08 04:46:48;;;;;;;1.50;1.40;;;13.40;94.10;;;;;;4976622;28;20047;-72
2022/08/08 04:49:14;;;;;;;2.80;1.60;;;13.40;93.70;;;;;;4975342;28;20051;-72
2022/08/08 04:51:40;;;;;;;2.53;1.40;;;13.30;93.80;;;;;;4976879;28;20039;-73
2022/08/08 04:54:05;;;;;;;1.48;1.38;;;13.40;94.10;;;;;;4976637;28;20113;-73
2022/08/08 04:56:31;;;;;;;3.55;1.70;;;13.40;94.00;;;;;;4977255;28;20110;-73
2022/08/08 04:58:56;;;;;;;3.15;1.58;;;13.30;93.90;;;;;;4976277;28;20027;-73
2022/08/08 05:01:22;;;;;;;3.67;1.70;;;13.40;94.60;;;;;;4975509;28;20056;-73
2022/08/08 05:03:48;;;;;;;2.38;1.52;;;13.50;94.30;;;;;;4976570;28;20058;-73
2022/08/08 05:06:14;;;;;;;2.92;1.63;;;13.50;94.30;;;;;;4976246;28;20043;-73
2022/08/08 05:08:40;;;;;;;1.90;1.70;;;13.50;94.30;;;;;;4976040;28;20035;-73
2022/08/08 05:11:06;;;;;;;2.30;1.55;;;13.50;94.40;;;;;;4976135;28;20110;-73
2022/08/08 05:13:32;;;;;;;2.92;1.67;;;13.50;94.20;;;;;;4975017;28;20495;-73
2022/08/08 05:15:58;;;;;;;3.22;1.50;;;13.50;94.30;;;;;;4975879;28;20118;-73
2022/08/08 05:18:24;;;;;;;2.10;1.38;;;13.50;94.20;;;;;;4976128;28;20592;-73
2022/08/08 05:20:49;;;;;;;2.17;1.80;;;13.50;93.90;;;;;;4976209;28;20090;-73
2022/08/08 05:23:15;;;;;;;3.03;1.30;;;13.50;93.60;;;;;;4975813;28;20481;-73
2022/08/08 05:25:40;;;;;;;3.22;1.40;;;13.60;93.80;;;;;;4975889;28;20453;-73
2022/08/08 05:28:06;;;;;;;2.92;1.30;;;13.70;93.70;;;;;;4974837;28;20196;-73
2022/08/08 05:30:32;;;;;;;2.47;1.45;;;13.70;93.50;;;;;;4974319;28;20117;-71
2022/08/08 05:32:58;;;;;;;1.83;1.48;;;13.80;93.30;;;;;;4975582;28;20031;-73
2022/08/08 05:35:26;;;;;;;1.75;1.35;;;14.00;92.80;;;;;;4974477;28;20612;-73
2022/08/08 05:38:02;;;;;;;1.95;1.40;;;14.10;92.50;;;;;;4975667;28;20031;-73
2022/08/08 05:40:28;;;;;;;4.43;1.40;;;14.30;91.40;;;;;;4974177;28;20090;-73
2022/08/08 05:43:00;;;;;;;2.83;1.63;;;14.40;91.20;;;;;;4975926;28;20464;-73
2022/08/08 05:45:27;;;;;;;2.17;1.48;;;14.50;91.20;;;;;;4975719;28;20031;-73
2022/08/08 05:47:53;;;;;;;1.50;1.40;;;14.70;90.90;;;;;;4975722;28;20023;-73
2022/08/08 05:50:19;;;;;;;3.05;1.55;;;14.70;91.00;;;;;;4975738;28;20023;-73
2022/08/08 05:52:46;;;;;;;1.98;1.38;;;14.80;91.00;;;;;;4975967;28;20027;-73
2022/08/08 05:55:11;;;;;;;2.47;1.70;;;14.80;90.70;;;;;;4975512;28;20050;-75
2022/08/08 05:57:41;;;;;;;1.48;1.30;;;14.90;90.60;;;;;;4975719;28;20042;-74
2022/08/08 06:00:09;;;;;;;3.55;1.48;;;14.90;90.70;;;;;;4975696;28;20115;-73
2022/08/08 06:05:20;;;;;;;2.03;1.40;;;14.90;90.70;;;;;;4976019;28;20039;-76
2022/08/08 06:07:48;;;;;;;2.45;1.58;;;15.20;90.40;;;;;;4975476;28;20074;-74
2022/08/08 06:10:14;;;;;;;4.47;1.63;;;15.20;90.60;;;;;;4975084;28;20093;-75
2022/08/08 06:12:43;;;;;;;2.97;1.80;;;15.40;90.20;;;;;;4975503;28;20058;-74
2022/08/08 06:15:10;;;;;;;5.90;1.77;;;15.40;90.20;;;;;;4974817;28;20044;-74
2022/08/08 06:17:38;;;;;;;2.22;1.70;;;15.50;90.00;;;;;;4975349;28;20031;-74
2022/08/08 06:20:07;;;;;;;2.55;1.33;;;15.60;89.10;;;;;;4975153;28;20497;-74
2022/08/08 06:22:33;;;;;;;2.17;1.40;;;15.60;90.10;;;;;;4975040;28;20075;-74
2022/08/08 06:24:59;;;;;;;2.50;1.60;;;15.80;89.40;;;;;;4974935;28;20102;-74
2022/08/08 06:27:42;;;;;;;3.67;1.60;;;15.90;89.40;;;;;;4975037;28;20031;-75
2022/08/08 06:30:10;;;;;;;1.70;1.50;;;16.00;89.50;;;;;;4974710;28;20035;-74
2022/08/08 06:32:44;;;;;;;3.30;1.20;;;16.00;87.50;;;;;;4975266;28;20102;-74
2022/08/08 06:35:12;;;;;;;2.17;1.42;;;16.20;86.70;;;;;;4974939;28;20043;-74
2022/08/08 06:37:44;;;;;;;2.35;1.30;;;16.30;86.70;;;;;;4975155;28;20038;-74
2022/08/08 06:40:13;;;;;;;2.13;1.33;;;16.30;87.20;;;;;;4975065;28;20038;-74
2022/08/08 06:42:49;;;;;;;2.95;1.25;;;16.40;86.50;;;;;;4974718;28;20053;-74
2022/08/08 06:45:17;;;;;;;4.90;1.55;;;16.50;86.60;;;;;;4974786;28;20043;-74
2022/08/08 06:47:43;;;;;;;2.35;1.55;;;16.50;87.20;;;;;;4978010;28;20046;-74
2022/08/08 06:50:09;;;;;;;3.00;1.40;;;16.60;86.40;;;;;;4978350;28;20032;-74
2022/08/08 06:52:36;;;;;;;4.90;1.50;;;16.70;87.20;;;;;;4978350;28;20027;-74
2022/08/08 06:55:05;;;;;;;2.15;1.30;;;16.80;85.90;;;;;;4977524;28;20043;-75
2022/08/08 06:57:31;;;;;;;2.85;1.50;;;17.00;86.10;;;;;;4976810;28;20654;-74
2022/08/08 06:59:57;;;;;;;3.08;1.30;;;17.20;85.70;;;;;;4978283;28;20556;-74
2022/08/08 07:02:25;;;;;;;1.77;1.20;;;17.40;84.20;;;;;;4977788;28;20043;-74
2022/08/08 07:04:55;;;;;;;2.80;1.40;;;17.60;84.50;;;;;;4977848;28;20437;-74
2022/08/08 07:07:46;;;;;;;2.72;1.30;;;17.70;83.40;;;;;;4978065;28;20472;-74
2022/08/08 07:10:11;;;;;;;3.90;1.30;;;17.90;82.50;;;;;;4977078;28;20098;-74
2022/08/08 07:12:43;;;;;;;2.72;1.48;;;18.10;81.00;;;;;;4977978;28;20031;-74
2022/08/08 07:15:11;;;;;;;4.75;1.60;;;18.20;81.70;;;;;;4978306;28;20047;-74
2022/08/08 07:17:45;;;;;;;2.17;1.50;;;18.40;80.80;;;;;;4977821;28;20506;-74
2022/08/08 07:20:19;;;;;;;3.22;1.27;;;18.50;82.10;;;;;;4977879;28;20027;-74
2022/08/08 07:23:09;;;;;;;5.20;1.40;;;18.60;81.90;;;;;;4978161;28;20507;-74
2022/08/08 07:25:39;;;;;;;1.48;1.30;;;18.80;79.90;;;;;;4977921;28;20859;-75
2022/08/08 07:28:14;;;;;;;1.73;1.35;;;19.00;80.60;;;;;;4977930;28;20098;-74
2022/08/08 07:30:41;;;;;;;3.72;1.40;;;19.30;79.60;;;;;;4977828;28;20031;-74
2022/08/08 07:33:11;;;;;;;5.80;1.67;;;19.50;78.80;;;;;;4978348;28;20541;-71
2022/08/08 07:35:37;;;;;;;3.33;1.60;;;19.80;77.40;;;;;;4977464;28;20053;-83
2022/08/08 07:38:04;;;;;;;6.38;1.45;;;20.10;76.00;;;;;;4976083;28;20085;-73
2022/08/08 07:40:31;;;;;;;2.47;1.50;;;20.30;76.50;;;;;;4977422;28;20043;-72
2022/08/08 07:42:59;;;;;;;3.28;1.42;;;20.60;74.80;;;;;;4977376;28;20058;-74
2022/08/08 07:45:25;;;;;;;2.33;1.27;;;20.80;73.90;;;;;;4977973;28;20039;-77
2022/08/08 07:47:53;;;;;;;3.65;1.40;;;21.10;73.60;;;;;;4977686;28;20031;-75
2022/08/08 07:50:19;;;;;;;3.08;1.42;;;21.20;74.10;;;;;;4976363;28;20098;-76
2022/08/08 07:52:51;;;;;;;2.22;1.50;;;21.50;74.20;;;;;;4977741;28;20031;-73
2022/08/08 07:55:25;;;;;;;2.58;1.50;;;21.70;73.00;;;;;;4976997;28;20043;-74
2022/08/08 07:58:18;;;;;;;2.38;1.50;;;21.90;73.40;;;;;;4977031;28;20606;-75
2022/08/08 08:00:58;;;;;;;5.75;1.60;;;22.00;71.90;;;;;;4976848;28;20500;-73
2022/08/08 08:03:35;;;;;;;2.38;1.25;;;22.20;71.40;;;;;;4977585;28;20050;-71
2022/08/08 08:06:04;;;;;;;2.95;1.70;;;22.40;70.50;;;;;;4977208;28;20131;-73
2022/08/08 08:08:38;;;;;;;3.60;1.60;;;22.60;70.70;;;;;;4976533;28;20035;-72
2022/08/08 08:11:13;;;;;;;1.85;1.33;;;22.80;69.50;;;;;;4976840;28;20082;-72
2022/08/08 08:14:03;;;;;;;3.10;1.58;;;23.00;69.30;;;;;;4976086;28;20023;-73
2022/08/08 08:16:32;;;;;;;4.75;1.80;;;23.40;68.00;;;;;;4976873;28;20039;-73
2022/08/08 08:19:07;;;;;;;8.07;1.80;;;23.60;67.60;;;;;;4976959;28;20576;-73
2022/08/08 08:21:41;;;;;;;3.20;1.80;;;23.80;68.30;;;;;;4976744;28;20046;-73
2022/08/08 08:24:07;;;;;;;2.88;1.58;;;23.90;67.80;;;;;;4976551;28;20154;-73
2022/08/08 08:26:33;;;;;;;2.75;1.77;;;24.00;67.60;;;;;;4976923;28;20123;-73
2022/08/08 08:28:58;;;;;;;4.13;1.70;;;24.30;66.70;;;;;;4976746;28;20186;-73
2022/08/08 08:31:25;;;;;;;3.13;1.80;;;24.30;67.10;;;;;;4976600;28;20043;-73
2022/08/08 08:33:50;;;;;;;5.22;1.75;;;24.30;66.70;;;;;;4976766;28;20098;-72
2022/08/08 08:36:19;;;;;;;3.10;1.70;;;24.60;66.20;;;;;;4974992;28;20043;-72
2022/08/08 08:38:45;;;;;;;2.78;1.80;;;24.90;65.30;;;;;;4976680;28;20055;-72
2022/08/08 08:41:11;;;;;;;2.50;1.77;;;25.20;65.70;;;;;;4976595;28;20405;-72
2022/08/08 08:43:41;;;;;;;2.85;1.48;;;25.20;65.20;;;;;;4976528;28;20046;-72
2022/08/08 08:46:09;;;;;;;2.70;1.90;;;25.20;65.10;;;;;;4976241;28;20042;-72
2022/08/08 08:48:35;;;;;;;3.25;1.80;;;25.30;64.70;;;;;;4969932;28;20032;-73
2022/08/08 08:51:02;;;;;;;3.45;1.80;;;25.40;65.00;;;;;;4975647;28;20039;-72
2022/08/08 08:53:35;;;;;;;2.78;1.92;;;25.60;63.90;;;;;;4976433;28;20034;-73
2022/08/08 08:56:01;;;;;;;2.40;2.00;;;25.80;63.10;;;;;;4976354;28;20046;-73
2022/08/08 08:58:46;;;;;;;1.90;1.73;;;25.70;64.00;;;;;;4976494;28;20054;-73
2022/08/08 09:01:14;;;;;;;1.70;1.60;;;25.60;62.80;;;;;;4975422;28;20095;-73
2022/08/08 09:03:46;;;;;;;3.65;1.77;;;25.80;63.40;;;;;;4976341;28;20041;-73
2022/08/08 09:06:31;;;;;;;3.13;1.70;;;26.00;63.80;;;;;;4976000;28;20552;-72
2022/08/08 09:09:16;;;;;;;5.47;1.65;;;26.00;64.20;;;;;;4976376;28;20035;-73
2022/08/08 09:11:45;;;;;;;3.38;1.70;;;26.10;63.50;;;;;;4976136;28;20114;-73
2022/08/08 09:14:11;;;;;;;3.75;1.73;;;26.10;63.40;;;;;;4975779;28;20046;-72
2022/08/08 09:16:37;;;;;;;3.97;1.77;;;26.40;61.70;;;;;;4975901;28;20507;-73
2022/08/08 09:19:03;;;;;;;2.40;1.77;;;26.60;61.20;;;;;;4976084;28;20043;-73
2022/08/08 09:21:30;;;;;;;2.88;1.60;;;26.60;59.90;;;;;;4975491;28;20046;-73
2022/08/08 09:23:56;;;;;;;3.17;1.83;;;26.60;60.30;;;;;;4976083;28;20578;-75
2022/08/08 09:26:51;;;;;;;4.18;1.63;;;26.60;60.50;;;;;;4972517;28;20493;-75
2022/08/08 09:29:21;;;;;;;4.70;1.75;;;26.80;59.40;;;;;;4974651;28;20516;-75
2022/08/08 09:32:07;;;;;;;2.30;1.80;;;26.80;60.90;;;;;;4975707;28;20046;-74
2022/08/08 09:34:37;;;;;;;5.85;1.50;;;26.90;58.90;;;;;;4973885;28;20043;-74
2022/08/08 09:37:07;;;;;;;3.10;1.20;;;27.10;59.20;;;;;;4975867;28;20504;-75
2022/08/08 09:39:56;;;;;;;1.52;1.42;;;27.50;57.50;;;;;;4975521;28;20039;-76
2022/08/08 09:42:25;;;;;;;2.10;1.30;;;27.50;55.90;;;;;;4975521;28;20082;-74
2022/08/08 09:45:06;;;;;;;2.65;1.50;;;27.70;56.30;;;;;;4975744;28;20093;-72
2022/08/08 09:47:34;;;;;;;2.22;1.60;;;27.90;56.60;;;;;;4975479;28;20037;-74
2022/08/08 09:50:06;;;;;;;2.63;1.40;;;27.90;55.60;;;;;;4973921;28;20122;-75
2022/08/08 09:52:34;;;;;;;2.30;1.50;;;28.00;55.30;;;;;;4975046;28;20035;-76
2022/08/08 09:55:00;;;;;;;3.22;1.50;;;28.10;54.90;;;;;;4975123;28;20043;-77
2022/08/08 09:57:39;;;;;;;3.10;1.50;;;28.00;53.40;;;;;;4974803;28;20036;-77
2022/08/08 10:00:10;;;;;;;3.38;1.42;;;28.20;53.70;;;;;;4973538;28;20085;-77
2022/08/08 10:02:44;;;;;;;3.92;1.30;;;28.40;53.00;;;;;;4972929;28;20036;-77
2022/08/08 10:05:24;;;;;;;2.17;1.48;;;28.80;52.90;;;;;;4974755;28;20555;-77
2022/08/08 10:07:50;;;;;;;1.80;1.65;;;28.70;52.50;;;;;;4974630;28;20035;-78
2022/08/08 10:10:39;;;;;;;2.95;1.50;;;28.80;52.90;;;;;;4972473;28;20489;-78
2022/08/08 10:13:20;;;;;;;1.75;1.33;;;28.80;51.40;;;;;;4975753;28;20033;-80
2022/08/08 10:15:49;;;;;;;2.05;1.38;;;29.40;51.20;;;;;;4975165;28;20041;-73
2022/08/08 10:18:25;;;;;;;3.58;1.40;;;29.50;49.90;;;;;;4975355;28;20035;-74
2022/08/08 10:20:57;;;;;;;2.17;1.38;;;29.60;50.90;;;;;;4978535;28;20501;-73
2022/08/08 10:23:38;;;;;;;4.00;1.45;;;30.00;50.40;;;;;;4981808;28;20035;-73
2022/08/08 10:26:18;;;;;;;1.50;1.38;;;29.70;50.10;;;;;;4981211;28;20042;-74
2022/08/08 10:29:00;;;;;;;5.03;1.63;;;30.20;50.30;;;;;;4981541;28;20031;-73
2022/08/08 10:34:16;;;;;;;3.22;1.30;;;30.40;48.60;;;;;;4978973;28;20090;-73
2022/08/08 10:36:43;;;;;;;3.25;1.13;;;30.60;49.20;;;;;;4981379;28;20184;-72
2022/08/08 10:39:10;;;;;;;4.93;1.10;;;31.10;46.50;;;;;;4979233;28;20118;-72
2022/08/08 10:41:37;;;;;;;1.92;1.10;;;31.00;45.20;;;;;;4973162;28;20067;-73
2022/08/08 10:44:04;;;;;;;1.20;1.10;;;30.80;45.30;;;;;;4978278;28;20027;-73
2022/08/08 10:46:30;;;;;;;3.53;1.45;;;30.60;47.90;;;;;;4980771;28;20027;-74
2022/08/08 10:48:57;;;;;;;1.75;1.23;;;30.80;46.90;;;;;;4979421;28;20035;-74
2022/08/08 10:51:25;;;;;;;1.83;1.30;;;31.00;46.50;;;;;;4980307;28;20039;-74
2022/08/08 10:53:54;;;;;;;2.38;1.45;;;31.50;46.00;;;;;;4981215;28;20035;-74
2022/08/08 10:56:22;;;;;;;1.63;1.30;;;31.70;46.00;;;;;;4981207;28;20568;-74
2022/08/08 10:59:08;;;;;;;5.38;1.40;;;31.60;46.30;;;;;;4981056;28;20090;-74
2022/08/08 11:01:36;;;;;;;2.53;1.27;;;31.40;45.50;;;;;;4980769;28;20094;-73
2022/08/08 11:04:06;;;;;;;4.50;1.40;;;31.40;45.90;;;;;;4981186;28;20031;-73
2022/08/08 11:06:34;;;;;;;1.35;1.25;;;31.70;46.20;;;;;;4981635;28;20121;-73
2022/08/08 11:09:02;;;;;;;4.45;1.58;;;32.00;46.10;;;;;;4981038;28;20043;-73
2022/08/08 11:11:36;;;;;;;1.73;1.40;;;32.00;45.60;;;;;;4980781;28;20477;-73
2022/08/08 11:14:02;;;;;;;4.43;1.38;;;32.40;44.60;;;;;;4981213;28;20492;-74
2022/08/08 11:16:31;;;;;;;2.88;1.40;;;32.40;45.30;;;;;;4981319;28;20047;-75
2022/08/08 11:18:58;;;;;;;3.95;1.30;;;32.30;44.30;;;;;;4981173;28;20039;-75
2022/08/08 11:21:24;;;;;;;3.80;1.40;;;32.20;44.90;;;;;;4980683;28;20035;-73
2022/08/08 11:23:52;;;;;;;1.65;1.40;;;32.20;44.90;;;;;;4980958;28;20037;-74
2022/08/08 11:26:18;;;;;;;1.38;1.20;;;31.80;44.90;;;;;;4980774;28;20039;-71
2022/08/08 11:28:45;;;;;;;1.83;1.30;;;31.60;44.90;;;;;;4980883;28;20036;-72
2022/08/08 11:31:15;;;;;;;1.73;1.20;;;32.00;44.50;;;;;;4980988;28;20035;-71
2022/08/08 11:33:50;;;;;;;3.38;1.65;;;32.30;44.00;;;;;;4975156;28;20449;-73
2022/08/08 11:36:17;;;;;;;1.77;1.42;;;32.50;44.50;;;;;;4977382;28;20043;-72
2022/08/08 11:38:45;;;;;;;2.38;1.20;;;32.70;42.60;;;;;;4977754;28;20059;-70
2022/08/08 11:41:11;;;;;;;1.90;1.20;;;32.90;42.10;;;;;;4975930;28;20047;-75
2022/08/08 11:43:39;;;;;;;1.45;1.20;;;32.80;42.10;;;;;;4977595;28;20054;-72
2022/08/08 11:46:07;;;;;;;1.50;1.30;;;33.00;40.90;;;;;;4977429;28;20050;-78
2022/08/08 11:48:33;;;;;;;2.88;1.35;;;33.10;42.20;;;;;;4976680;28;20028;-73
2022/08/08 11:50:59;;;;;;;1.63;1.00;;;33.10;42.40;;;;;;4976837;28;20035;-73
2022/08/08 11:53:25;;;;;;;2.67;1.23;;;32.80;41.20;;;;;;4958006;28;20032;-74
2022/08/08 11:55:51;;;;;;;2.83;1.38;;;32.70;41.70;;;;;;4956586;28;20043;-71
2022/08/08 11:58:17;;;;;;;2.28;1.30;;;33.00;42.60;;;;;;4957736;28;20032;-71
2022/08/08 12:00:50;;;;;;;4.00;1.30;;;33.20;41.50;;;;;;4965197;28;20039;-72
2022/08/08 12:03:23;;;;;;;2.17;1.20;;;33.60;41.30;;;;;;4970810;28;20158;-74
2022/08/08 12:05:50;;;;;;;3.30;1.30;;;33.50;41.80;;;;;;4977048;28;20553;-75
2022/08/08 12:08:16;;;;;;;3.63;1.38;;;33.80;42.20;;;;;;4977355;28;20449;-75
2022/08/08 12:10:47;;;;;;;4.65;1.25;;;34.00;41.00;;;;;;4976907;28;20512;-75
2022/08/08 12:13:21;;;;;;;1.40;1.10;;;34.30;40.00;;;;;;4977140;28;20028;-75
2022/08/08 12:15:47;;;;;;;2.78;1.15;;;34.50;40.50;;;;;;4975265;28;20444;-75
2022/08/08 12:18:17;;;;;;;2.10;1.10;;;34.30;39.70;;;;;;4975824;28;20039;-76
2022/08/08 12:20:43;;;;;;;2.47;1.15;;;33.90;40.00;;;;;;4976787;28;20035;-76
2022/08/08 12:23:09;;;;;;;5.68;1.30;;;34.10;39.30;;;;;;4976875;28;20102;-76
2022/08/08 12:25:35;;;;;;;1.63;1.30;;;33.80;37.90;;;;;;4976892;28;20035;-76
2022/08/08 12:28:14;;;;;;;3.20;1.90;;;34.10;39.00;;;;;;4975392;28;20084;-75
2022/08/08 12:30:42;;;;;;;2.42;1.20;;;34.00;39.90;;;;;;4976539;28;20086;-76
2022/08/08 12:33:25;;;;;;;3.88;1.00;;;34.10;39.10;;;;;;4976885;28;20031;-76
2022/08/08 12:35:52;;;;;;;2.15;1.20;;;34.10;39.30;;;;;;4976779;28;20043;-76
2022/08/08 12:38:18;;;;;;;2.72;1.52;;;34.30;39.10;;;;;;4976724;28;20486;-76
2022/08/08 12:40:49;;;;;;;1.67;1.08;;;34.60;39.00;;;;;;4977339;28;20153;-76
2022/08/08 12:43:15;;;;;;;2.22;1.27;;;34.90;38.40;;;;;;4976332;28;20494;-75
2022/08/08 12:45:45;;;;;;;1.38;1.20;;;35.10;38.40;;;;;;4975167;28;20527;-75
2022/08/08 12:48:24;;;;;;;5.70;1.20;;;35.00;38.10;;;;;;4973929;28;20509;-75
2022/08/08 12:50:55;;;;;;;4.40;1.13;;;34.80;38.80;;;;;;4975434;28;20051;-75
2022/08/08 12:53:32;;;;;;;6.35;1.50;;;34.60;38.20;;;;;;4974962;28;20030;-75
2022/08/08 12:56:06;;;;;;;1.70;1.00;;;34.90;38.20;;;;;;4976490;28;20548;-75
2022/08/08 12:58:50;;;;;;;2.22;1.02;;;35.00;37.90;;;;;;4976309;28;20039;-75
2022/08/08 13:01:16;;;;;;;2.50;1.33;;;34.80;38.90;;;;;;4975989;28;20043;-75
2022/08/08 13:03:47;;;;;;;2.50;1.40;;;35.00;38.00;;;;;;4976446;28;20035;-76
2022/08/08 13:06:17;;;;;;;2.38;1.25;;;34.40;39.40;;;;;;4975930;28;20564;-75
2022/08/08 13:08:47;;;;;;;3.92;1.30;;;34.50;39.40;;;;;;4975944;28;20515;-75
2022/08/08 13:11:37;;;;;;;2.30;1.20;;;34.60;38.60;;;;;;4974919;28;20039;-75
2022/08/08 13:14:02;;;;;;;2.58;1.20;;;34.60;39.40;;;;;;4979015;28;20043;-75
2022/08/08 13:16:30;;;;;;;2.17;1.20;;;34.50;39.50;;;;;;4967617;28;20075;-74
2022/08/08 13:18:57;;;;;;;1.58;1.30;;;34.60;38.60;;;;;;4968671;28;20037;-75
2022/08/08 13:21:23;;;;;;;2.08;1.17;;;34.30;37.70;;;;;;4968471;28;20082;-75
2022/08/08 13:23:49;;;;;;;3.25;1.35;;;34.50;39.30;;;;;;4974193;28;20028;-75
2022/08/08 13:26:14;;;;;;;5.20;1.10;;;34.30;39.50;;;;;;4971603;28;20039;-75
2022/08/08 13:28:40;;;;;;;2.50;1.00;;;34.30;39.30;;;;;;4978084;28;20035;-75
2022/08/08 13:31:10;;;;;;;7.10;1.30;;;34.80;39.80;;;;;;4992652;28;20378;-75
2022/08/08 13:33:36;;;;;;;1.33;1.05;;;34.70;38.20;;;;;;4992730;28;20026;-75
2022/08/08 13:36:03;;;;;;;3.40;1.20;;;35.10;38.00;;;;;;4991336;28;20180;-75
2022/08/08 13:38:30;;;;;;;1.88;1.17;;;35.40;37.60;;;;;;4990795;28;20070;-75
2022/08/08 13:40:56;;;;;;;2.50;1.10;;;35.60;37.00;;;;;;4984394;28;20035;-75
2022/08/08 13:43:21;;;;;;;2.42;1.45;;;36.20;36.70;;;;;;4970518;28;20028;-75
2022/08/08 13:45:47;;;;;;;2.83;1.13;;;36.60;36.40;;;;;;4983301;28;20137;-75
2022/08/08 13:48:14;;;;;;;3.53;1.10;;;36.60;35.90;;;;;;4972702;28;20382;-75
2022/08/08 13:50:48;;;;;;;3.45;1.10;;;37.00;35.50;;;;;;4985598;28;20030;-75
2022/08/08 13:53:29;;;;;;;2.15;1.17;;;37.50;34.40;;;;;;4970087;28;20487;-75
2022/08/08 13:56:00;;;;;;;6.38;1.15;;;37.60;34.70;;;;;;4968893;28;20040;-75
2022/08/08 13:58:28;;;;;;;2.88;0.95;;;38.50;34.40;;;;;;4972726;28;20097;-76
2022/08/08 14:00:53;;;;;;;5.90;1.02;;;38.10;31.80;;;;;;4971102;28;20039;-75
2022/08/08 14:03:29;;;;;;;3.92;1.20;;;38.20;33.00;;;;;;4968073;28;20031;-75
2022/08/08 14:06:10;;;;;;;2.75;1.00;;;39.30;33.20;;;;;;4983409;28;20105;-75
2022/08/08 14:08:46;;;;;;;2.05;1.30;;;39.40;32.40;;;;;;4981717;28;20047;-76
2022/08/08 14:11:15;;;;;;;3.63;1.20;;;39.80;31.10;;;;;;4978821;28;20081;-75
2022/08/08 14:13:41;;;;;;;1.55;1.02;;;39.80;31.90;;;;;;4993351;28;20082;-73
2022/08/08 14:16:07;;;;;;;1.98;1.00;;;40.50;31.30;;;;;;4983338;28;20562;-73
2022/08/08 14:18:32;;;;;;;3.40;1.00;;;39.80;29.80;;;;;;4973922;28;20039;-73
2022/08/08 14:21:03;;;;;;;2.33;1.40;;;39.30;31.20;;;;;;4975998;28;20047;-73
2022/08/08 14:23:39;;;;;;;1.65;0.88;;;39.80;31.10;;;;;;4973127;28;20089;-73
2022/08/08 14:26:06;;;;;;;2.20;0.98;;;39.70;30.50;;;;;;4981820;28;20114;-73
2022/08/08 14:28:32;;;;;;;2.47;1.10;;;39.00;31.00;;;;;;4972194;28;20571;-78
2022/08/08 14:31:08;;;;;;;2.13;0.98;;;39.80;30.90;;;;;;4970127;28;20083;-76
2022/08/08 14:33:33;;;;;;;1.67;1.02;;;40.00;31.40;;;;;;4984366;28;20035;-76
2022/08/08 14:36:10;;;;;;;1.42;0.90;;;40.30;30.40;;;;;;4983633;28;20039;-77
2022/08/08 14:38:37;;;;;;;1.88;0.93;;;41.20;29.40;;;;;;4994294;28;20031;-78
2022/08/08 14:41:09;;;;;;;3.35;1.20;;;41.40;29.50;;;;;;4991740;28;20058;-75
2022/08/08 14:43:51;;;;;;;1.05;0.95;;;40.80;29.30;;;;;;4986132;28;20038;-75
2022/08/08 14:46:20;;;;;;;1.13;1.00;;;40.40;30.00;;;;;;4963861;28;20042;-76
2022/08/08 14:48:47;;;;;;;2.22;1.02;;;40.10;30.10;;;;;;4986034;28;20437;-74
2022/08/08 14:51:14;;;;;;;2.00;1.08;;;40.00;30.00;;;;;;4994731;28;20030;-76
2022/08/08 14:53:42;;;;;;;3.13;1.15;;;41.50;30.20;;;;;;4989623;28;20038;-76
2022/08/08 14:56:08;;;;;;;2.75;1.10;;;41.90;28.90;;;;;;4983901;28;20547;-77
2022/08/08 14:58:33;;;;;;;2.78;0.93;;;41.90;28.80;;;;;;4979690;28;20039;-77
2022/08/08 15:01:00;;;;;;;1.75;1.10;;;41.50;29.20;;;;;;4981694;28;20117;-77
2022/08/08 15:03:26;;;;;;;2.25;1.10;;;42.30;28.30;;;;;;4994703;28;20525;-77
2022/08/08 15:05:51;;;;;;;1.25;1.00;;;42.20;28.40;;;;;;4993318;28;20508;-76
2022/08/08 15:08:17;;;;;;;7.03;1.15;;;42.80;28.20;;;;;;4974876;28;20032;-76
2022/08/08 15:10:43;;;;;;;3.55;1.20;;;42.10;27.80;;;;;;4983954;28;20039;-76
2022/08/08 15:13:12;;;;;;;1.65;1.17;;;42.50;28.00;;;;;;4985705;28;20027;-76
2022/08/08 15:15:39;;;;;;;2.45;1.20;;;43.10;27.70;;;;;;4985687;28;20039;-75
2022/08/08 15:18:04;;;;;;;3.75;1.30;;;42.40;27.80;;;;;;4976987;28;20046;-77
2022/08/08 15:20:30;;;;;;;2.08;1.10;;;43.10;27.80;;;;;;4982500;28;20041;-76
2022/08/08 15:22:58;;;;;;;1.58;1.25;;;42.60;27.50;;;;;;4984606;28;20039;-77
2022/08/08 15:25:24;;;;;;;1.45;1.30;;;43.40;27.60;;;;;;4980992;28;20035;-76
2022/08/08 15:27:49;;;;;;;1.48;1.35;;;43.60;28.10;;;;;;4991249;28;20030;-77
2022/08/08 15:30:15;;;;;;;2.00;1.35;;;43.90;27.10;;;;;;4996969;28;20500;-77
2022/08/08 15:32:41;;;;;;;1.65;1.13;;;43.80;27.20;;;;;;4997188;28;20467;-77
2022/08/08 15:35:07;;;;;;;1.38;1.25;;;43.90;27.20;;;;;;4997131;28;20042;-75
2022/08/08 15:37:33;;;;;;;2.50;1.20;;;43.90;26.50;;;;;;4997111;28;20046;-74
2022/08/08 15:39:58;;;;;;;2.55;1.13;;;43.90;26.70;;;;;;4996918;28;20118;-74
2022/08/08 15:42:24;;;;;;;2.67;1.20;;;43.60;27.30;;;;;;4996721;28;20041;-76
2022/08/08 15:44:50;;;;;;;2.65;1.23;;;44.00;27.60;;;;;;4996983;28;20058;-76
2022/08/08 15:47:16;;;;;;;1.70;1.20;;;44.50;26.90;;;;;;4973368;28;20042;-76
2022/08/08 15:49:43;;;;;;;3.53;1.20;;;43.90;26.60;;;;;;4967627;28;20948;-76
2022/08/08 15:52:13;;;;;;;2.50;1.00;;;44.20;26.70;;;;;;4968183;28;20039;-78
2022/08/08 15:54:43;;;;;;;1.25;1.08;;;43.70;26.90;;;;;;4974242;28;20095;-80
2022/08/08 15:57:11;;;;;;;1.58;1.10;;;43.90;27.10;;;;;;4986030;28;20031;-75
2022/08/08 15:59:37;;;;;;;2.45;1.17;;;43.40;26.90;;;;;;4986994;28;20476;-77
2022/08/08 16:02:03;;;;;;;1.08;0.98;;;42.20;27.20;;;;;;4984388;28;20047;-77
2022/08/08 16:04:29;;;;;;;5.40;0.98;;;42.00;27.60;;;;;;4984021;28;20039;-77
2022/08/08 16:06:55;;;;;;;3.63;1.45;;;42.00;27.60;;;;;;4997630;28;20042;-78
2022/08/08 16:09:21;;;;;;;1.55;1.00;;;42.50;28.00;;;;;;4975892;28;20383;-79
2022/08/08 16:11:47;;;;;;;10.82;1.65;;;43.70;27.10;;;;;;4973045;28;20050;-76
2022/08/08 16:14:13;;;;;;;4.93;1.85;;;43.20;26.70;;;;;;4994416;28;20059;-82
2022/08/08 16:16:39;;;;;;;3.72;1.27;;;43.70;27.10;;;;;;4971725;28;20553;-76
2022/08/08 16:19:05;;;;;;;3.00;1.10;;;43.60;27.00;;;;;;4976400;28;20041;-75
2022/08/08 16:21:32;;;;;;;3.35;1.20;;;43.60;27.10;;;;;;4977727;28;20436;-75
2022/08/08 16:24:00;;;;;;;1.95;0.90;;;43.80;26.90;;;;;;4970522;28;20032;-76
2022/08/08 16:26:27;;;;;;;2.95;1.10;;;43.00;27.10;;;;;;4977036;28;20039;-76
2022/08/08 16:28:52;;;;;;;1.90;1.23;;;42.70;27.60;;;;;;4977208;28;20110;-76
2022/08/08 16:31:20;;;;;;;1.30;1.20;;;44.00;27.10;;;;;;4976925;28;20118;-76
2022/08/08 16:33:46;;;;;;;1.83;1.00;;;44.30;27.10;;;;;;4976790;28;20087;-76
2022/08/08 16:36:11;;;;;;;1.30;1.20;;;43.90;27.00;;;;;;4976811;28;20046;-76
2022/08/08 16:38:37;;;;;;;1.52;1.10;;;43.70;27.00;;;;;;4976824;28;20039;-75
2022/08/08 16:41:02;;;;;;;2.00;1.10;;;42.20;27.70;;;;;;4976544;28;20477;-75
2022/08/08 16:43:28;;;;;;;4.45;1.10;;;41.10;28.20;;;;;;4976936;28;20047;-75
2022/08/08 16:45:54;;;;;;;2.65;0.98;;;40.40;29.10;;;;;;4976683;28;20043;-75
2022/08/08 16:48:19;;;;;;;2.28;1.15;;;39.20;30.10;;;;;;4976776;28;20042;-75
2022/08/08 16:50:45;;;;;;;1.33;0.90;;;38.60;30.00;;;;;;4976457;28;20035;-75
2022/08/08 16:53:11;;;;;;;2.15;0.85;;;37.00;30.80;;;;;;4976747;28;20035;-75
2022/08/08 16:55:37;;;;;;;5.50;1.13;;;35.60;32.50;;;;;;4976633;28;20059;-74
2022/08/08 16:58:03;;;;;;;1.38;0.90;;;34.50;34.30;;;;;;4976631;28;20622;-74
2022/08/08 17:00:28;;;;;;;1.98;1.10;;;34.00;35.00;;;;;;4976493;28;20036;-74
2022/08/08 17:02:54;;;;;;;2.05;0.90;;;33.10;36.00;;;;;;4976255;28;20036;-75